createdAt,value
2022-09-21T00:01:22.881Z,16.75
2022-09-21T00:03:58.475Z,16.88
2022-09-21T00:06:27.326Z,17.02
2022-09-21T00:08:55.042Z,16.63
2022-09-21T00:11:26.201Z,16.42
2022-09-21T00:14:00.778Z,16.27
2022-09-21T00:16:28.837Z,16.65
2022-09-21T00:18:55.605Z,16.42
2022-09-21T00:21:22.384Z,16.33
2022-09-21T00:23:49.350Z,16.15
2022-09-21T00:26:18.859Z,15.98
2022-09-21T00:28:46.187Z,16.58
2022-09-21T00:31:18.186Z,16.88
2022-09-21T00:33:45.112Z,16.75
2022-09-21T00:36:17.533Z,17.05
2022-09-21T00:38:46.282Z,16.85
2022-09-21T00:41:13.593Z,16.88
2022-09-21T00:43:47.340Z,16.92
2022-09-21T00:46:27.635Z,16.80
2022-09-21T00:48:54.660Z,16.63
2022-09-21T00:51:21.697Z,16.30
2022-09-21T00:53:54.579Z,16.48
2022-09-21T00:56:22.481Z,16.63
2022-09-21T00:58:52.609Z,16.25
2022-09-21T01:01:19.789Z,15.70
2022-09-21T01:03:47.684Z,16.75
2022-09-21T01:06:16.987Z,16.83
2022-09-21T01:08:45.299Z,17.23
2022-09-21T01:11:18.973Z,16.77
2022-09-21T01:14:11.319Z,16.55
2022-09-21T01:17:05.073Z,16.35
2022-09-21T01:19:43.844Z,16.55
2022-09-21T01:22:19.410Z,16.58
2022-09-21T01:25:15.715Z,16.60
2022-09-21T01:28:03.790Z,16.65
2022-09-21T01:30:34.208Z,16.42
2022-09-21T01:33:15.956Z,16.80
2022-09-21T01:35:48.493Z,16.63
2022-09-21T01:38:24.417Z,16.40
2022-09-21T01:40:55.442Z,16.67
2022-09-21T01:45:54.968Z,16.10
2022-09-21T01:48:24.561Z,16.65
2022-09-21T01:50:56.598Z,16.63
2022-09-21T01:53:46.076Z,16.42
2022-09-21T01:56:24.810Z,16.73
2022-09-21T01:59:30.523Z,16.10
2022-09-21T02:02:09.606Z,15.90
2022-09-21T02:04:36.648Z,16.35
2022-09-21T02:07:03.443Z,16.65
2022-09-21T02:09:30.245Z,16.55
2022-09-21T02:11:58.473Z,16.30
2022-09-21T02:14:25.760Z,16.45
2022-09-21T02:17:17.153Z,16.15
2022-09-21T02:19:54.393Z,16.45
2022-09-21T02:22:29.919Z,16.85
2022-09-21T02:25:15.695Z,16.73
2022-09-21T02:27:48.276Z,16.38
2022-09-21T02:30:14.859Z,16.33
2022-09-21T02:32:52.073Z,15.98
2022-09-21T02:35:28.433Z,15.70
2022-09-21T02:38:07.736Z,16.17
2022-09-21T02:40:38.244Z,16.10
2022-09-21T02:43:21.531Z,16.63
2022-09-21T02:46:04.361Z,16.27
2022-09-21T02:48:38.677Z,16.27
2022-09-21T02:51:11.687Z,16.25
2022-09-21T02:53:41.705Z,16.48
2022-09-21T02:56:11.577Z,16.95
2022-09-21T02:58:43.719Z,18.00
2022-09-21T03:01:13.027Z,15.60
2022-09-21T03:03:39.698Z,15.77
2022-09-21T03:06:06.628Z,17.92
2022-09-21T03:08:33.267Z,17.17
2022-09-21T03:10:59.951Z,17.10
2022-09-21T03:13:26.641Z,17.23
2022-09-21T03:16:03.813Z,17.23
2022-09-21T03:18:31.642Z,17.05
2022-09-21T03:20:58.458Z,16.50
2022-09-21T03:23:25.478Z,16.88
2022-09-21T03:25:52.463Z,16.55
2022-09-21T03:28:19.928Z,16.88
2022-09-21T03:30:48.810Z,17.17
2022-09-21T03:33:15.720Z,16.77
2022-09-21T03:35:42.658Z,17.30
2022-09-21T03:38:09.863Z,17.17
2022-09-21T03:40:36.556Z,17.23
2022-09-21T03:43:03.928Z,16.92
2022-09-21T03:45:30.590Z,17.17
2022-09-21T03:47:59.199Z,17.30
2022-09-21T03:50:30.190Z,17.73
2022-09-21T03:55:24.507Z,18.05
2022-09-21T03:57:51.263Z,18.65
2022-09-21T04:00:18.259Z,18.85
2022-09-21T04:02:45.022Z,18.88
2022-09-21T04:05:16.615Z,18.38
2022-09-21T04:07:45.883Z,17.58
2022-09-21T04:10:15.975Z,18.10
2022-09-21T04:12:44.784Z,17.05
2022-09-21T04:15:14.045Z,16.50
2022-09-21T04:17:40.790Z,16.65
2022-09-21T04:20:08.894Z,17.00
2022-09-21T04:22:41.141Z,17.10
2022-09-21T04:25:10.650Z,17.95
2022-09-21T04:27:37.284Z,17.60
2022-09-21T04:30:05.086Z,17.17
2022-09-21T04:32:32.078Z,16.70
2022-09-21T04:34:58.737Z,17.15
2022-09-21T04:37:25.462Z,17.38
2022-09-21T04:39:52.108Z,17.35
2022-09-21T04:42:19.299Z,17.25
2022-09-21T04:44:46.039Z,17.25
2022-09-21T04:47:12.865Z,17.10
2022-09-21T04:49:39.485Z,16.85
2022-09-21T04:52:06.126Z,17.48
2022-09-21T04:54:32.804Z,17.15
2022-09-21T04:56:59.577Z,17.75
2022-09-21T04:59:26.249Z,17.85
2022-09-21T05:01:53.164Z,18.40
2022-09-21T05:04:19.844Z,19.40
2022-09-21T05:06:46.471Z,19.48
2022-09-21T05:09:31.596Z,18.63
2022-09-21T05:11:58.256Z,17.65
2022-09-21T05:14:24.947Z,17.52
2022-09-21T05:16:51.647Z,17.20
2022-09-21T05:19:18.401Z,18.58
2022-09-21T05:21:45.075Z,18.67
2022-09-21T05:24:11.775Z,18.98
2022-09-21T05:26:38.535Z,19.38
2022-09-21T05:29:05.643Z,19.42
2022-09-21T05:31:44.713Z,20.00
2022-09-21T05:34:56.486Z,19.90
2022-09-21T05:37:28.932Z,19.00
2022-09-21T05:39:55.912Z,19.58
2022-09-21T05:42:22.841Z,19.17
2022-09-21T05:44:50.722Z,19.67
2022-09-21T05:47:20.386Z,20.20
2022-09-21T05:50:01.369Z,20.33
2022-09-21T05:52:50.098Z,19.83
2022-09-21T05:55:36.086Z,19.20
2022-09-21T05:58:21.218Z,19.73
2022-09-21T06:01:02.972Z,18.83
2022-09-21T06:03:32.229Z,18.23
2022-09-21T06:05:59.430Z,19.05
2022-09-21T06:08:26.853Z,18.23
2022-09-21T06:10:54.870Z,18.48
2022-09-21T06:13:21.659Z,19.20
2022-09-21T06:15:48.353Z,18.35
2022-09-21T06:18:17.959Z,18.73
2022-09-21T06:20:45.183Z,17.85
2022-09-21T06:23:15.487Z,19.08
2022-09-21T06:25:42.214Z,18.20
2022-09-21T06:28:10.731Z,18.95
2022-09-21T06:30:39.368Z,18.83
2022-09-21T06:33:07.127Z,18.35
2022-09-21T06:35:35.639Z,18.45
2022-09-21T06:38:07.526Z,19.48
2022-09-21T06:40:36.929Z,19.00
2022-09-21T06:43:04.664Z,19.45
2022-09-21T06:45:32.313Z,19.52
2022-09-21T06:47:59.378Z,19.23
2022-09-21T06:50:26.108Z,20.05
2022-09-21T06:52:52.825Z,19.70
2022-09-21T06:55:20.094Z,19.88
2022-09-21T06:57:46.904Z,19.92
2022-09-21T07:00:14.345Z,18.92
2022-09-21T07:02:45.554Z,20.45
2022-09-21T07:05:12.869Z,19.88
2022-09-21T07:07:40.538Z,19.60
2022-09-21T07:10:14.435Z,19.90
2022-09-21T07:12:44.105Z,20.20
2022-09-21T07:15:10.974Z,19.85
2022-09-21T07:17:39.378Z,19.75
2022-09-21T07:20:07.992Z,19.40
2022-09-21T07:22:36.318Z,19.88
2022-09-21T07:25:04.571Z,19.98
2022-09-21T07:27:32.721Z,19.70
2022-09-21T07:29:59.358Z,19.75
2022-09-21T07:32:26.345Z,20.80
2022-09-21T07:34:56.547Z,20.17
2022-09-21T07:37:27.345Z,20.13
2022-09-21T07:39:54.170Z,23.23
2022-09-21T07:42:22.953Z,20.85
2022-09-21T07:44:50.873Z,24.05
2022-09-21T07:47:17.898Z,23.83
2022-09-21T07:49:44.828Z,20.25
2022-09-21T07:52:12.188Z,19.77
2022-09-21T07:54:38.804Z,20.92
2022-09-21T07:57:24.153Z,20.90
2022-09-21T07:59:50.771Z,21.10
2022-09-21T08:02:17.591Z,21.08
2022-09-21T08:04:44.239Z,20.98
2022-09-21T08:07:10.879Z,21.00
2022-09-21T08:09:37.822Z,25.35
2022-09-21T08:12:04.531Z,24.60
2022-09-21T08:14:31.955Z,24.52
2022-09-21T08:16:58.690Z,24.45
2022-09-21T08:19:26.710Z,24.80
2022-09-21T08:21:57.643Z,23.80
2022-09-21T08:24:26.731Z,25.55
2022-09-21T08:26:55.882Z,24.35
2022-09-21T08:29:23.967Z,24.98
2022-09-21T08:31:50.930Z,24.60
2022-09-21T08:34:17.959Z,24.10
2022-09-21T08:36:44.602Z,22.48
2022-09-21T08:39:11.337Z,23.25
2022-09-21T08:41:53.077Z,23.08
2022-09-21T08:44:31.975Z,22.63
2022-09-21T08:47:17.421Z,23.90
2022-09-21T08:49:51.355Z,21.95
2022-09-21T08:52:21.372Z,21.85
2022-09-21T08:55:05.959Z,20.83
2022-09-21T08:57:34.206Z,21.33
2022-09-21T09:00:02.005Z,21.13
2022-09-21T09:02:28.656Z,20.55
2022-09-21T09:05:24.923Z,21.63
2022-09-21T09:08:09.613Z,20.83
2022-09-21T09:10:48.994Z,20.38
2022-09-21T09:13:41.093Z,20.98
2022-09-21T09:16:45.017Z,20.20
2022-09-21T09:19:50.028Z,20.15
2022-09-21T09:22:25.662Z,23.38
2022-09-21T09:24:55.312Z,24.17
2022-09-21T09:27:28.750Z,19.77
2022-09-21T09:30:10.651Z,19.88
2022-09-21T09:32:51.541Z,19.73
2022-09-21T09:35:42.953Z,19.55
2022-09-21T09:38:19.986Z,18.77
2022-09-21T09:41:08.430Z,18.52
2022-09-21T09:43:47.215Z,19.27
2022-09-21T09:46:26.292Z,19.50
2022-09-21T09:49:14.501Z,18.73
2022-09-21T09:51:41.447Z,19.10
2022-09-21T09:54:14.507Z,18.08
2022-09-21T09:56:41.848Z,18.48
2022-09-21T09:59:19.330Z,18.63
2022-09-21T10:01:47.467Z,17.60
2022-09-21T10:04:17.557Z,17.58
2022-09-21T10:06:46.707Z,16.88
2022-09-21T10:09:24.593Z,17.00
2022-09-21T10:11:53.321Z,16.23
2022-09-21T10:14:23.987Z,16.65
2022-09-21T10:16:54.467Z,14.98
2022-09-21T10:19:25.189Z,16.35
2022-09-21T10:22:00.373Z,17.27
2022-09-21T10:24:30.822Z,16.58
2022-09-21T10:27:05.202Z,16.95
2022-09-21T10:29:40.157Z,16.92
2022-09-21T10:32:14.766Z,17.45
2022-09-21T10:35:00.560Z,15.43
2022-09-21T10:37:29.929Z,16.02
2022-09-21T10:39:57.334Z,16.40
2022-09-21T10:42:24.038Z,15.65
2022-09-21T10:45:12.249Z,16.27
2022-09-21T10:47:52.405Z,16.58
2022-09-21T10:50:35.802Z,16.27
2022-09-21T10:53:19.582Z,15.25
2022-09-21T10:56:21.864Z,16.02
2022-09-21T10:59:28.550Z,17.00
2022-09-21T11:01:57.711Z,15.90
2022-09-21T11:04:32.815Z,15.73
2022-09-21T11:07:12.671Z,16.08
2022-09-21T11:10:04.077Z,21.65
2022-09-21T11:12:35.804Z,15.93
2022-09-21T11:15:18.250Z,15.50
2022-09-21T11:17:51.346Z,16.00
2022-09-21T11:20:36.301Z,15.63
2022-09-21T11:23:43.214Z,14.80
2022-09-21T11:26:21.750Z,15.70
2022-09-21T11:28:57.695Z,15.82
2022-09-21T11:31:27.954Z,15.10
2022-09-21T11:34:32.046Z,14.57
2022-09-21T11:37:01.399Z,15.52
2022-09-21T11:39:50.568Z,14.63
2022-09-21T11:42:33.532Z,15.00
2022-09-21T11:45:02.161Z,15.45
2022-09-21T11:47:46.811Z,14.90
2022-09-21T11:50:40.290Z,15.05
2022-09-21T11:53:14.403Z,14.48
2022-09-21T11:56:09.782Z,14.90
2022-09-21T11:58:39.828Z,14.95
2022-09-21T12:01:45.459Z,14.50
2022-09-21T12:04:15.116Z,14.43
2022-09-21T12:06:53.747Z,15.30
2022-09-21T12:09:43.981Z,14.45
2022-09-21T12:12:25.954Z,14.90
2022-09-21T12:15:22.446Z,15.02
2022-09-21T12:18:06.423Z,16.00
2022-09-21T12:20:44.815Z,15.10
2022-09-21T12:23:23.433Z,15.40
2022-09-21T12:25:54.754Z,15.60
2022-09-21T12:28:27.509Z,15.55
2022-09-21T12:31:01.028Z,15.30
2022-09-21T12:33:47.539Z,15.75
2022-09-21T12:36:20.501Z,15.60
2022-09-21T12:39:03.450Z,15.30
2022-09-21T12:41:46.248Z,15.32
2022-09-21T12:44:21.572Z,16.63
2022-09-21T12:46:55.167Z,17.13
2022-09-21T12:49:29.900Z,15.93
2022-09-21T12:52:06.850Z,14.82
2022-09-21T12:55:01.443Z,15.32
2022-09-21T12:58:14.663Z,15.57
2022-09-21T13:01:20.789Z,15.90
2022-09-21T13:04:23.163Z,16.00
2022-09-21T13:07:32.730Z,15.07
2022-09-21T13:10:07.578Z,15.02
2022-09-21T13:12:42.185Z,15.57
2022-09-21T13:15:25.409Z,19.52
2022-09-21T13:18:05.841Z,19.00
2022-09-21T13:20:40.953Z,19.95
2022-09-21T13:23:16.540Z,20.05
2022-09-21T13:25:59.331Z,19.90
2022-09-21T13:28:41.899Z,18.85
2022-09-21T13:31:30.158Z,19.02
2022-09-21T13:34:21.993Z,17.70
2022-09-21T13:37:17.855Z,18.27
2022-09-21T13:39:48.546Z,18.98
2022-09-21T13:42:30.164Z,17.77
2022-09-21T13:44:58.574Z,16.80
2022-09-21T13:47:34.480Z,17.90
2022-09-21T13:50:11.107Z,18.42
2022-09-21T13:52:44.654Z,18.40
2022-09-21T13:55:39.152Z,17.50
2022-09-21T13:58:19.571Z,17.17
2022-09-21T14:00:56.000Z,17.90
2022-09-21T14:03:38.467Z,17.30
2022-09-21T14:06:25.088Z,18.00
2022-09-21T14:09:00.115Z,18.75
2022-09-21T14:11:47.338Z,17.98
2022-09-21T14:14:24.544Z,18.50
2022-09-21T14:16:55.888Z,18.45
2022-09-21T14:19:23.202Z,17.83
2022-09-21T14:22:07.830Z,17.75
2022-09-21T14:24:42.750Z,18.02
2022-09-21T14:27:23.668Z,17.52
2022-09-21T14:32:26.399Z,17.73
2022-09-21T14:35:01.512Z,18.15
2022-09-21T14:37:34.317Z,17.55
2022-09-21T14:40:16.626Z,18.30
2022-09-21T14:42:43.627Z,17.67
2022-09-21T14:45:18.313Z,17.48
2022-09-21T14:47:54.132Z,18.17
2022-09-21T14:50:52.801Z,19.45
2022-09-21T14:53:39.283Z,20.85
2022-09-21T14:56:30.252Z,19.13
2022-09-21T14:59:04.487Z,18.42
2022-09-21T15:01:34.473Z,18.08
2022-09-21T15:04:30.677Z,19.33
2022-09-21T15:07:28.423Z,18.33
2022-09-21T15:10:40.344Z,18.20
2022-09-21T15:13:28.779Z,18.67
2022-09-21T15:16:22.081Z,19.70
2022-09-21T15:19:04.588Z,20.27
2022-09-21T15:21:34.131Z,19.17
2022-09-21T15:24:34.709Z,19.40
2022-09-21T15:27:10.485Z,19.15
2022-09-21T15:29:37.891Z,18.33
2022-09-21T15:32:07.051Z,19.65
2022-09-21T15:34:33.870Z,19.55
2022-09-21T15:37:13.137Z,19.17
2022-09-21T15:39:43.097Z,19.30
2022-09-21T15:42:09.729Z,19.30
2022-09-21T15:44:38.575Z,19.48
2022-09-21T15:47:12.645Z,19.00
2022-09-21T15:49:40.158Z,17.90
2022-09-21T15:52:40.228Z,17.13
2022-09-21T15:55:19.285Z,22.38
2022-09-21T15:57:47.082Z,19.70
2022-09-21T16:00:16.528Z,17.77
2022-09-21T16:02:57.817Z,17.90
2022-09-21T16:05:25.766Z,14.30
2022-09-21T16:08:07.507Z,13.38
2022-09-21T16:10:34.107Z,13.50
2022-09-21T16:13:39.617Z,13.63
2022-09-21T16:16:09.345Z,15.20
2022-09-21T16:18:45.587Z,14.63
2022-09-21T16:21:32.730Z,14.70
2022-09-21T16:24:18.067Z,15.75
2022-09-21T16:26:57.923Z,16.23
2022-09-21T16:29:37.820Z,17.33
2022-09-21T16:32:19.988Z,16.88
2022-09-21T16:34:48.453Z,15.85
2022-09-21T16:37:28.808Z,16.10
2022-09-21T16:39:58.164Z,14.45
2022-09-21T16:42:28.033Z,15.10
2022-09-21T16:44:55.454Z,15.38
2022-09-21T16:47:26.886Z,14.25
2022-09-21T16:50:00.432Z,15.30
2022-09-21T16:52:29.277Z,14.88
2022-09-21T16:54:58.770Z,14.88
2022-09-21T16:57:26.663Z,14.10
2022-09-21T16:59:53.797Z,15.10
2022-09-21T17:02:20.756Z,15.40
2022-09-21T17:04:48.242Z,14.57
2022-09-21T17:07:15.770Z,15.18
2022-09-21T17:09:46.420Z,16.00
2022-09-21T17:12:16.034Z,14.55
2022-09-21T17:14:46.692Z,15.02
2022-09-21T17:17:23.714Z,15.02
2022-09-21T17:19:52.345Z,14.90
2022-09-21T17:22:19.744Z,15.00
2022-09-21T17:24:51.418Z,15.07
2022-09-21T17:27:24.125Z,14.90
2022-09-21T17:29:54.023Z,14.65
2022-09-21T17:32:23.822Z,14.95
2022-09-21T17:35:01.805Z,14.70
2022-09-21T17:37:29.501Z,15.10
2022-09-21T17:39:56.189Z,14.82
2022-09-21T17:42:24.663Z,14.75
2022-09-21T17:45:13.082Z,15.00
2022-09-21T17:47:40.809Z,14.65
2022-09-21T17:50:14.029Z,15.45
2022-09-21T17:53:02.626Z,15.27
2022-09-21T17:55:30.462Z,15.75
2022-09-21T17:58:07.064Z,14.45
2022-09-21T18:00:52.463Z,15.68
2022-09-21T18:03:28.196Z,15.23
2022-09-21T18:06:00.886Z,15.90
2022-09-21T18:08:29.279Z,16.05
2022-09-21T18:11:33.091Z,16.50
2022-09-21T18:14:30.595Z,15.75
2022-09-21T18:17:34.722Z,15.32
2022-09-21T18:20:22.624Z,15.40
2022-09-21T18:22:49.196Z,15.65
2022-09-21T18:25:23.808Z,15.32
2022-09-21T18:27:51.273Z,16.23
2022-09-21T18:30:18.761Z,17.20
2022-09-21T18:32:59.190Z,19.10
2022-09-21T18:35:34.931Z,19.20
2022-09-21T18:38:10.555Z,18.35
2022-09-21T18:40:56.376Z,19.88
2022-09-21T18:44:00.650Z,19.02
2022-09-21T18:46:50.729Z,19.20
2022-09-21T18:49:38.965Z,17.35
2022-09-21T18:52:35.900Z,16.45
2022-09-21T18:55:12.886Z,16.27
2022-09-21T18:57:39.872Z,16.33
2022-09-21T19:00:10.997Z,16.25
2022-09-21T19:02:48.719Z,16.83
2022-09-21T19:05:25.039Z,16.75
2022-09-21T19:08:20.604Z,16.40
2022-09-21T19:11:03.827Z,15.85
2022-09-21T19:13:47.102Z,16.30
2022-09-21T19:16:31.564Z,16.08
2022-09-21T19:19:35.891Z,16.08
2022-09-21T19:22:16.569Z,15.88
2022-09-21T19:25:00.758Z,16.15
2022-09-21T19:27:45.293Z,15.35
2022-09-21T19:30:17.035Z,16.05
2022-09-21T19:32:53.921Z,15.30
2022-09-21T19:35:24.201Z,15.80
2022-09-21T19:37:53.788Z,16.23
2022-09-21T19:40:26.951Z,15.90
2022-09-21T19:42:59.756Z,17.38
2022-09-21T19:45:45.296Z,16.30
2022-09-21T19:48:15.674Z,16.02
2022-09-21T19:50:53.266Z,15.63
2022-09-21T19:53:40.090Z,14.48
2022-09-21T19:56:31.889Z,15.35
2022-09-21T19:59:17.689Z,16.00
2022-09-21T20:01:54.977Z,16.17
2022-09-21T20:04:56.185Z,16.35
2022-09-21T20:07:30.270Z,16.02
2022-09-21T20:10:17.451Z,16.52
2022-09-21T20:12:56.702Z,17.30
2022-09-21T20:15:33.647Z,16.65
2022-09-21T20:18:10.402Z,16.75
2022-09-21T20:20:38.138Z,16.52
2022-09-21T20:23:05.275Z,16.63
2022-09-21T20:25:41.236Z,17.52
2022-09-21T20:28:08.445Z,17.65
2022-09-21T20:30:38.377Z,18.20
2022-09-21T20:33:10.956Z,18.42
2022-09-21T20:35:37.746Z,18.02
2022-09-21T20:38:05.226Z,18.40
2022-09-21T20:40:32.479Z,18.70
2022-09-21T20:43:01.242Z,18.30
2022-09-21T20:45:29.277Z,18.05
2022-09-21T20:47:57.253Z,17.92
2022-09-21T20:50:26.720Z,19.27
2022-09-21T20:52:53.341Z,19.08
2022-09-21T20:55:20.488Z,19.48
2022-09-21T20:57:47.274Z,19.35
2022-09-21T21:00:16.124Z,18.48
2022-09-21T21:02:43.416Z,18.52
2022-09-21T21:05:11.319Z,18.23
2022-09-21T21:07:42.550Z,18.73
2022-09-21T21:10:13.316Z,19.00
2022-09-21T21:12:41.905Z,18.98
2022-09-21T21:15:14.379Z,19.20
2022-09-21T21:17:42.194Z,18.80
2022-09-21T21:20:11.875Z,19.23
2022-09-21T21:22:38.547Z,19.60
2022-09-21T21:25:05.561Z,18.83
2022-09-21T21:27:32.529Z,18.70
2022-09-21T21:29:59.746Z,18.80
2022-09-21T21:32:26.778Z,18.90
2022-09-21T21:34:54.908Z,18.70
2022-09-21T21:37:25.059Z,18.52
2022-09-21T21:39:53.129Z,17.00
2022-09-21T21:42:20.722Z,18.25
2022-09-21T21:44:51.807Z,19.55
2022-09-21T21:47:39.120Z,19.02
2022-09-21T21:50:06.070Z,19.00
2022-09-21T21:52:32.839Z,18.10
2022-09-21T21:54:59.517Z,18.63
2022-09-21T21:57:26.204Z,18.50
2022-09-21T21:59:53.133Z,18.15
2022-09-21T22:02:20.196Z,18.30
2022-09-21T22:04:46.931Z,17.90
2022-09-21T22:07:13.691Z,17.92
2022-09-21T22:09:40.400Z,17.65
2022-09-21T22:12:07.194Z,18.05
2022-09-21T22:14:33.861Z,17.42
2022-09-21T22:17:00.628Z,18.27
2022-09-21T22:19:27.318Z,18.35
2022-09-21T22:21:54.930Z,18.45
2022-09-21T22:24:21.919Z,19.50
2022-09-21T22:26:51.148Z,18.80
2022-09-21T22:29:17.924Z,19.33
2022-09-21T22:31:47.249Z,19.15
2022-09-21T22:34:14.996Z,19.08
2022-09-21T22:36:44.345Z,19.77
2022-09-21T22:39:12.230Z,19.27
2022-09-21T22:41:41.110Z,18.35
2022-09-21T22:44:11.251Z,18.92
2022-09-21T22:46:38.641Z,19.53
2022-09-21T22:49:05.714Z,19.48
2022-09-21T22:51:36.290Z,19.50
2022-09-21T22:54:03.042Z,18.88
2022-09-21T22:56:31.848Z,19.60
2022-09-21T22:59:00.314Z,19.13
2022-09-21T23:01:34.176Z,18.88
2022-09-21T23:04:03.900Z,19.52
2022-09-21T23:06:33.501Z,19.65
2022-09-21T23:09:02.731Z,18.42
2022-09-21T23:11:32.570Z,18.83
2022-09-21T23:13:59.743Z,18.60
2022-09-21T23:16:28.270Z,18.65
2022-09-21T23:18:55.781Z,18.70
2022-09-21T23:21:26.171Z,18.30
2022-09-21T23:24:01.543Z,17.48
2022-09-21T23:26:42.425Z,17.00
2022-09-21T23:31:51.367Z,17.23
2022-09-21T23:34:20.360Z,18.20
2022-09-21T23:36:49.059Z,18.15
2022-09-21T23:39:16.093Z,19.23
2022-09-21T23:41:45.541Z,18.48
2022-09-21T23:44:12.617Z,17.98
2022-09-21T23:46:40.483Z,18.48
2022-09-21T23:49:07.341Z,17.88
2022-09-21T23:51:34.881Z,18.00
2022-09-21T23:54:01.749Z,18.10
2022-09-21T23:56:28.949Z,18.02
2022-09-21T23:58:56.081Z,17.73
